sensor_id;sensor_type;location;lat;lon;timestamp;P1;durP1;ratioP1;P2;durP2;ratioP2
27895;SDS011;15241;48.374;10.876;2023-08-06T00:00:03;3.37;;;3.00;;
27895;SDS011;15241;48.374;10.876;2023-08-06T00:05:22;3.17;;;2.62;;
27895;SDS011;15241;48.374;10.876;2023-08-06T00:10:39;3.47;;;3.00;;
27895;SDS011;15241;48.374;10.876;2023-08-06T00:15:56;3.17;;;2.35;;
27895;SDS011;15241;48.374;10.876;2023-08-06T00:21:24;3.60;;;2.70;;
27895;SDS011;15241;48.374;10.876;2023-08-06T00:26:42;3.00;;;2.70;;
27895;SDS011;15241;48.374;10.876;2023-08-06T00:31:59;2.92;;;2.62;;
27895;SDS011;15241;48.374;10.876;2023-08-06T00:37:17;6.28;;;2.85;;
27895;SDS011;15241;48.374;10.876;2023-08-06T00:42:34;4.33;;;2.42;;
27895;SDS011;15241;48.374;10.876;2023-08-06T00:47:51;3.12;;;2.83;;
27895;SDS011;15241;48.374;10.876;2023-08-06T00:53:09;3.25;;;2.90;;
27895;SDS011;15241;48.374;10.876;2023-08-06T00:58:27;3.55;;;3.08;;
27895;SDS011;15241;48.374;10.876;2023-08-06T01:03:44;4.37;;;3.40;;
27895;SDS011;15241;48.374;10.876;2023-08-06T01:09:04;3.90;;;2.85;;
27895;SDS011;15241;48.374;10.876;2023-08-06T01:14:23;5.03;;;3.08;;
27895;SDS011;15241;48.374;10.876;2023-08-06T01:19:43;4.83;;;3.08;;
27895;SDS011;15241;48.374;10.876;2023-08-06T01:25:00;4.45;;;3.37;;
27895;SDS011;15241;48.374;10.876;2023-08-06T01:30:19;4.95;;;2.62;;
27895;SDS011;15241;48.374;10.876;2023-08-06T01:35:38;2.60;;;2.40;;
27895;SDS011;15241;48.374;10.876;2023-08-06T01:40:57;5.55;;;2.65;;
27895;SDS011;15241;48.374;10.876;2023-08-06T01:46:14;2.52;;;2.15;;
27895;SDS011;15241;48.374;10.876;2023-08-06T01:51:32;2.92;;;2.40;;
27895;SDS011;15241;48.374;10.876;2023-08-06T01:56:49;7.60;;;2.80;;
27895;SDS011;15241;48.374;10.876;2023-08-06T02:02:07;2.85;;;2.60;;
27895;SDS011;15241;48.374;10.876;2023-08-06T02:07:25;2.50;;;2.30;;
27895;SDS011;15241;48.374;10.876;2023-08-06T02:12:42;3.17;;;2.30;;
27895;SDS011;15241;48.374;10.876;2023-08-06T02:18:00;3.52;;;2.40;;
27895;SDS011;15241;48.374;10.876;2023-08-06T02:23:17;2.37;;;2.17;;
27895;SDS011;15241;48.374;10.876;2023-08-06T02:28:34;3.42;;;2.25;;
27895;SDS011;15241;48.374;10.876;2023-08-06T02:33:52;3.37;;;2.67;;
27895;SDS011;15241;48.374;10.876;2023-08-06T02:39:10;2.85;;;2.52;;
27895;SDS011;15241;48.374;10.876;2023-08-06T02:44:28;3.72;;;2.42;;
27895;SDS011;15241;48.374;10.876;2023-08-06T02:49:46;2.87;;;2.33;;
27895;SDS011;15241;48.374;10.876;2023-08-06T02:55:04;2.70;;;2.50;;
27895;SDS011;15241;48.374;10.876;2023-08-06T03:00:22;3.00;;;1.92;;
27895;SDS011;15241;48.374;10.876;2023-08-06T03:05:40;3.85;;;2.37;;
27895;SDS011;15241;48.374;10.876;2023-08-06T03:10:58;3.40;;;2.30;;
27895;SDS011;15241;48.374;10.876;2023-08-06T03:16:16;3.95;;;2.30;;
27895;SDS011;15241;48.374;10.876;2023-08-06T03:21:34;4.78;;;2.08;;
27895;SDS011;15241;48.374;10.876;2023-08-06T03:26:51;3.00;;;2.27;;
27895;SDS011;15241;48.374;10.876;2023-08-06T03:32:08;4.95;;;2.47;;
27895;SDS011;15241;48.374;10.876;2023-08-06T03:37:25;3.50;;;2.17;;
27895;SDS011;15241;48.374;10.876;2023-08-06T03:42:42;3.22;;;2.47;;
27895;SDS011;15241;48.374;10.876;2023-08-06T03:48:00;4.00;;;2.58;;
27895;SDS011;15241;48.374;10.876;2023-08-06T03:53:18;2.55;;;2.25;;
27895;SDS011;15241;48.374;10.876;2023-08-06T03:58:35;3.85;;;2.02;;
27895;SDS011;15241;48.374;10.876;2023-08-06T04:03:53;2.40;;;1.80;;
27895;SDS011;15241;48.374;10.876;2023-08-06T04:09:10;4.50;;;1.80;;
27895;SDS011;15241;48.374;10.876;2023-08-06T04:14:28;2.52;;;1.98;;
27895;SDS011;15241;48.374;10.876;2023-08-06T04:19:45;2.27;;;2.08;;
27895;SDS011;15241;48.374;10.876;2023-08-06T04:25:05;2.98;;;1.98;;
27895;SDS011;15241;48.374;10.876;2023-08-06T04:30:23;1.85;;;1.42;;
27895;SDS011;15241;48.374;10.876;2023-08-06T04:35:40;2.45;;;2.00;;
27895;SDS011;15241;48.374;10.876;2023-08-06T04:40:58;2.67;;;1.95;;
27895;SDS011;15241;48.374;10.876;2023-08-06T04:46:16;2.60;;;1.85;;
27895;SDS011;15241;48.374;10.876;2023-08-06T04:51:33;2.58;;;2.00;;
27895;SDS011;15241;48.374;10.876;2023-08-06T04:56:51;2.35;;;2.00;;
27895;SDS011;15241;48.374;10.876;2023-08-06T05:02:08;2.65;;;1.70;;
27895;SDS011;15241;48.374;10.876;2023-08-06T05:07:26;5.15;;;2.00;;
27895;SDS011;15241;48.374;10.876;2023-08-06T05:12:44;3.72;;;1.67;;
27895;SDS011;15241;48.374;10.876;2023-08-06T05:18:01;2.98;;;1.95;;
27895;SDS011;15241;48.374;10.876;2023-08-06T05:23:18;3.70;;;1.98;;
27895;SDS011;15241;48.374;10.876;2023-08-06T05:28:36;2.05;;;1.67;;
27895;SDS011;15241;48.374;10.876;2023-08-06T05:33:53;3.05;;;1.85;;
27895;SDS011;15241;48.374;10.876;2023-08-06T05:39:11;2.77;;;1.90;;
27895;SDS011;15241;48.374;10.876;2023-08-06T05:44:29;3.37;;;2.17;;
27895;SDS011;15241;48.374;10.876;2023-08-06T05:49:46;2.75;;;1.80;;
27895;SDS011;15241;48.374;10.876;2023-08-06T05:55:04;2.45;;;1.42;;
27895;SDS011;15241;48.374;10.876;2023-08-06T06:00:23;3.42;;;1.82;;
27895;SDS011;15241;48.374;10.876;2023-08-06T06:05:40;2.87;;;2.12;;
27895;SDS011;15241;48.374;10.876;2023-08-06T06:10:57;2.70;;;1.52;;
27895;SDS011;15241;48.374;10.876;2023-08-06T06:16:15;2.33;;;1.50;;
27895;SDS011;15241;48.374;10.876;2023-08-06T06:21:33;3.83;;;1.72;;
27895;SDS011;15241;48.374;10.876;2023-08-06T06:26:50;3.25;;;1.35;;
27895;SDS011;15241;48.374;10.876;2023-08-06T06:32:08;1.52;;;1.40;;
27895;SDS011;15241;48.374;10.876;2023-08-06T06:37:26;1.87;;;1.40;;
27895;SDS011;15241;48.374;10.876;2023-08-06T06:42:43;2.35;;;1.30;;
27895;SDS011;15241;48.374;10.876;2023-08-06T06:48:01;1.40;;;1.30;;
27895;SDS011;15241;48.374;10.876;2023-08-06T06:53:18;1.40;;;1.10;;
27895;SDS011;15241;48.374;10.876;2023-08-06T06:58:35;2.30;;;1.00;;
27895;SDS011;15241;48.374;10.876;2023-08-06T07:03:53;1.95;;;1.17;;
27895;SDS011;15241;48.374;10.876;2023-08-06T07:09:10;1.27;;;1.17;;
27895;SDS011;15241;48.374;10.876;2023-08-06T07:14:28;2.62;;;1.17;;
27895;SDS011;15241;48.374;10.876;2023-08-06T07:19:46;3.02;;;1.20;;
27895;SDS011;15241;48.374;10.876;2023-08-06T07:25:04;2.42;;;1.12;;
27895;SDS011;15241;48.374;10.876;2023-08-06T07:30:23;1.65;;;1.20;;
27895;SDS011;15241;48.374;10.876;2023-08-06T07:35:41;1.52;;;0.90;;
27895;SDS011;15241;48.374;10.876;2023-08-06T07:40:58;2.08;;;1.05;;
27895;SDS011;15241;48.374;10.876;2023-08-06T07:46:17;3.25;;;1.07;;
27895;SDS011;15241;48.374;10.876;2023-08-06T07:51:35;4.30;;;1.20;;
27895;SDS011;15241;48.374;10.876;2023-08-06T07:56:53;3.83;;;1.02;;
27895;SDS011;15241;48.374;10.876;2023-08-06T08:02:10;1.40;;;0.70;;
27895;SDS011;15241;48.374;10.876;2023-08-06T08:07:28;1.20;;;0.78;;
27895;SDS011;15241;48.374;10.876;2023-08-06T08:12:46;2.87;;;0.60;;
27895;SDS011;15241;48.374;10.876;2023-08-06T08:18:04;1.20;;;0.80;;
27895;SDS011;15241;48.374;10.876;2023-08-06T08:23:21;1.02;;;0.50;;
27895;SDS011;15241;48.374;10.876;2023-08-06T08:28:39;1.50;;;0.93;;
27895;SDS011;15241;48.374;10.876;2023-08-06T08:33:57;0.93;;;0.72;;
27895;SDS011;15241;48.374;10.876;2023-08-06T08:39:14;1.95;;;0.45;;
27895;SDS011;15241;48.374;10.876;2023-08-06T08:44:31;1.37;;;0.70;;
27895;SDS011;15241;48.374;10.876;2023-08-06T08:49:50;0.60;;;0.60;;
27895;SDS011;15241;48.374;10.876;2023-08-06T08:55:09;1.47;;;0.62;;
27895;SDS011;15241;48.374;10.876;2023-08-06T09:00:28;1.98;;;1.05;;
27895;SDS011;15241;48.374;10.876;2023-08-06T09:05:47;3.50;;;0.72;;
27895;SDS011;15241;48.374;10.876;2023-08-06T09:11:06;1.02;;;0.50;;
27895;SDS011;15241;48.374;10.876;2023-08-06T09:16:25;0.75;;;0.40;;
27895;SDS011;15241;48.374;10.876;2023-08-06T09:21:43;0.45;;;0.42;;
27895;SDS011;15241;48.374;10.876;2023-08-06T09:27:01;2.02;;;0.80;;
27895;SDS011;15241;48.374;10.876;2023-08-06T09:32:19;2.40;;;1.15;;
27895;SDS011;15241;48.374;10.876;2023-08-06T09:37:36;1.25;;;0.50;;
27895;SDS011;15241;48.374;10.876;2023-08-06T09:42:54;0.95;;;0.35;;
27895;SDS011;15241;48.374;10.876;2023-08-06T09:48:12;0.30;;;0.30;;
27895;SDS011;15241;48.374;10.876;2023-08-06T09:53:30;1.27;;;0.30;;
27895;SDS011;15241;48.374;10.876;2023-08-06T09:58:48;0.35;;;0.30;;
27895;SDS011;15241;48.374;10.876;2023-08-06T10:04:07;0.40;;;0.30;;
27895;SDS011;15241;48.374;10.876;2023-08-06T10:09:24;3.85;;;0.42;;
27895;SDS011;15241;48.374;10.876;2023-08-06T10:14:43;0.37;;;0.35;;
27895;SDS011;15241;48.374;10.876;2023-08-06T10:20:02;0.88;;;0.40;;
27895;SDS011;15241;48.374;10.876;2023-08-06T10:25:23;0.68;;;0.68;;
27895;SDS011;15241;48.374;10.876;2023-08-06T10:30:46;0.53;;;0.35;;
27895;SDS011;15241;48.374;10.876;2023-08-06T10:36:04;0.80;;;0.30;;
27895;SDS011;15241;48.374;10.876;2023-08-06T10:41:23;0.50;;;0.30;;
27895;SDS011;15241;48.374;10.876;2023-08-06T10:46:44;1.45;;;0.47;;
27895;SDS011;15241;48.374;10.876;2023-08-06T10:52:02;0.30;;;0.20;;
27895;SDS011;15241;48.374;10.876;2023-08-06T10:57:21;1.20;;;0.40;;
27895;SDS011;15241;48.374;10.876;2023-08-06T11:02:39;0.17;;;0.17;;
27895;SDS011;15241;48.374;10.876;2023-08-06T11:07:57;0.60;;;0.30;;
27895;SDS011;15241;48.374;10.876;2023-08-06T11:13:16;0.72;;;0.35;;
27895;SDS011;15241;48.374;10.876;2023-08-06T11:18:34;0.70;;;0.37;;
27895;SDS011;15241;48.374;10.876;2023-08-06T11:23:51;0.20;;;0.20;;
27895;SDS011;15241;48.374;10.876;2023-08-06T11:29:10;0.15;;;0.15;;
27895;SDS011;15241;48.374;10.876;2023-08-06T11:34:27;0.35;;;0.20;;
27895;SDS011;15241;48.374;10.876;2023-08-06T11:39:47;1.07;;;0.20;;
27895;SDS011;15241;48.374;10.876;2023-08-06T11:45:06;0.15;;;0.10;;
27895;SDS011;15241;48.374;10.876;2023-08-06T11:50:24;0.10;;;0.10;;
27895;SDS011;15241;48.374;10.876;2023-08-06T11:55:42;0.85;;;0.30;;
27895;SDS011;15241;48.374;10.876;2023-08-06T12:01:00;0.42;;;0.30;;
27895;SDS011;15241;48.374;10.876;2023-08-06T12:06:18;0.55;;;0.30;;
27895;SDS011;15241;48.374;10.876;2023-08-06T12:11:36;0.10;;;0.10;;
27895;SDS011;15241;48.374;10.876;2023-08-06T12:16:54;0.20;;;0.20;;
27895;SDS011;15241;48.374;10.876;2023-08-06T12:22:11;2.33;;;0.33;;
27895;SDS011;15241;48.374;10.876;2023-08-06T12:27:29;0.80;;;0.20;;
27895;SDS011;15241;48.374;10.876;2023-08-06T12:32:46;0.30;;;0.30;;
27895;SDS011;15241;48.374;10.876;2023-08-06T12:38:03;0.25;;;0.10;;
27895;SDS011;15241;48.374;10.876;2023-08-06T12:43:21;0.30;;;0.10;;
27895;SDS011;15241;48.374;10.876;2023-08-06T12:48:39;0.30;;;0.30;;
27895;SDS011;15241;48.374;10.876;2023-08-06T12:53:57;0.10;;;0.10;;
27895;SDS011;15241;48.374;10.876;2023-08-06T12:59:14;0.15;;;0.13;;
27895;SDS011;15241;48.374;10.876;2023-08-06T13:04:32;0.65;;;0.20;;
27895;SDS011;15241;48.374;10.876;2023-08-06T13:09:50;1.35;;;0.30;;
27895;SDS011;15241;48.374;10.876;2023-08-06T13:15:08;1.45;;;0.20;;
27895;SDS011;15241;48.374;10.876;2023-08-06T13:20:26;0.10;;;0.10;;
27895;SDS011;15241;48.374;10.876;2023-08-06T13:25:44;0.13;;;0.13;;
27895;SDS011;15241;48.374;10.876;2023-08-06T13:31:02;0.20;;;0.15;;
27895;SDS011;15241;48.374;10.876;2023-08-06T13:36:19;0.25;;;0.20;;
27895;SDS011;15241;48.374;10.876;2023-08-06T13:41:37;0.25;;;0.20;;
27895;SDS011;15241;48.374;10.876;2023-08-06T13:46:55;0.25;;;0.25;;
27895;SDS011;15241;48.374;10.876;2023-08-06T13:52:12;0.10;;;0.10;;
27895;SDS011;15241;48.374;10.876;2023-08-06T13:57:30;0.20;;;0.20;;
27895;SDS011;15241;48.374;10.876;2023-08-06T14:02:47;0.20;;;0.20;;
27895;SDS011;15241;48.374;10.876;2023-08-06T14:08:05;0.20;;;0.20;;
27895;SDS011;15241;48.374;10.876;2023-08-06T14:13:22;0.35;;;0.20;;
27895;SDS011;15241;48.374;10.876;2023-08-06T14:18:40;0.28;;;0.23;;
27895;SDS011;15241;48.374;10.876;2023-08-06T14:23:57;0.33;;;0.23;;
27895;SDS011;15241;48.374;10.876;2023-08-06T14:29:15;0.42;;;0.42;;
27895;SDS011;15241;48.374;10.876;2023-08-06T14:34:32;2.58;;;0.95;;
27895;SDS011;15241;48.374;10.876;2023-08-06T14:39:49;0.93;;;0.33;;
27895;SDS011;15241;48.374;10.876;2023-08-06T14:45:08;0.50;;;0.30;;
27895;SDS011;15241;48.374;10.876;2023-08-06T14:50:26;0.20;;;0.20;;
27895;SDS011;15241;48.374;10.876;2023-08-06T14:55:44;0.20;;;0.20;;
27895;SDS011;15241;48.374;10.876;2023-08-06T15:01:01;0.35;;;0.35;;
27895;SDS011;15241;48.374;10.876;2023-08-06T15:06:18;0.20;;;0.20;;
27895;SDS011;15241;48.374;10.876;2023-08-06T15:11:36;0.50;;;0.40;;
27895;SDS011;15241;48.374;10.876;2023-08-06T15:16:53;0.68;;;0.50;;
27895;SDS011;15241;48.374;10.876;2023-08-06T15:22:11;0.65;;;0.40;;
27895;SDS011;15241;48.374;10.876;2023-08-06T15:27:29;0.47;;;0.45;;
27895;SDS011;15241;48.374;10.876;2023-08-06T15:32:46;0.30;;;0.30;;
27895;SDS011;15241;48.374;10.876;2023-08-06T15:38:04;1.20;;;0.50;;
27895;SDS011;15241;48.374;10.876;2023-08-06T15:43:21;0.60;;;0.40;;
27895;SDS011;15241;48.374;10.876;2023-08-06T15:48:39;0.40;;;0.40;;
27895;SDS011;15241;48.374;10.876;2023-08-06T15:53:56;0.30;;;0.30;;
27895;SDS011;15241;48.374;10.876;2023-08-06T15:59:21;2.17;;;0.40;;
27895;SDS011;15241;48.374;10.876;2023-08-06T16:04:39;0.37;;;0.37;;
27895;SDS011;15241;48.374;10.876;2023-08-06T16:09:57;0.30;;;0.30;;
27895;SDS011;15241;48.374;10.876;2023-08-06T16:15:14;0.88;;;0.40;;
27895;SDS011;15241;48.374;10.876;2023-08-06T16:20:32;0.20;;;0.20;;
27895;SDS011;15241;48.374;10.876;2023-08-06T16:25:50;1.42;;;0.40;;
27895;SDS011;15241;48.374;10.876;2023-08-06T16:31:07;0.40;;;0.40;;
27895;SDS011;15241;48.374;10.876;2023-08-06T16:36:25;0.85;;;0.62;;
27895;SDS011;15241;48.374;10.876;2023-08-06T16:41:43;0.90;;;0.50;;
27895;SDS011;15241;48.374;10.876;2023-08-06T16:47:00;2.30;;;0.50;;
27895;SDS011;15241;48.374;10.876;2023-08-06T16:52:18;0.57;;;0.53;;
27895;SDS011;15241;48.374;10.876;2023-08-06T16:57:36;0.45;;;0.35;;
27895;SDS011;15241;48.374;10.876;2023-08-06T17:02:53;1.37;;;0.42;;
27895;SDS011;15241;48.374;10.876;2023-08-06T17:08:11;0.15;;;0.15;;
27895;SDS011;15241;48.374;10.876;2023-08-06T17:13:29;0.20;;;0.20;;
27895;SDS011;15241;48.374;10.876;2023-08-06T17:18:46;0.55;;;0.40;;
27895;SDS011;15241;48.374;10.876;2023-08-06T17:24:04;0.72;;;0.30;;
27895;SDS011;15241;48.374;10.876;2023-08-06T17:29:22;2.12;;;0.53;;
27895;SDS011;15241;48.374;10.876;2023-08-06T17:34:39;0.80;;;0.37;;
27895;SDS011;15241;48.374;10.876;2023-08-06T17:39:57;1.12;;;0.50;;
27895;SDS011;15241;48.374;10.876;2023-08-06T17:45:15;0.80;;;0.60;;
27895;SDS011;15241;48.374;10.876;2023-08-06T17:50:32;1.55;;;0.80;;
27895;SDS011;15241;48.374;10.876;2023-08-06T17:55:49;0.80;;;0.40;;
27895;SDS011;15241;48.374;10.876;2023-08-06T18:01:06;0.70;;;0.45;;
27895;SDS011;15241;48.374;10.876;2023-08-06T18:06:24;1.17;;;0.60;;
27895;SDS011;15241;48.374;10.876;2023-08-06T18:11:41;0.60;;;0.45;;
27895;SDS011;15241;48.374;10.876;2023-08-06T18:16:59;1.02;;;0.50;;
27895;SDS011;15241;48.374;10.876;2023-08-06T18:22:16;0.93;;;0.47;;
27895;SDS011;15241;48.374;10.876;2023-08-06T18:27:34;1.05;;;0.80;;
27895;SDS011;15241;48.374;10.876;2023-08-06T18:32:51;0.47;;;0.40;;
27895;SDS011;15241;48.374;10.876;2023-08-06T18:38:09;0.40;;;0.40;;
27895;SDS011;15241;48.374;10.876;2023-08-06T18:43:27;0.40;;;0.40;;
27895;SDS011;15241;48.374;10.876;2023-08-06T18:48:45;0.35;;;0.35;;
27895;SDS011;15241;48.374;10.876;2023-08-06T18:54:03;1.30;;;0.60;;
27895;SDS011;15241;48.374;10.876;2023-08-06T18:59:20;0.72;;;0.60;;
27895;SDS011;15241;48.374;10.876;2023-08-06T19:04:37;1.02;;;0.70;;
27895;SDS011;15241;48.374;10.876;2023-08-06T19:09:55;1.50;;;0.47;;
27895;SDS011;15241;48.374;10.876;2023-08-06T19:15:12;1.07;;;0.78;;
27895;SDS011;15241;48.374;10.876;2023-08-06T19:20:31;0.50;;;0.50;;
27895;SDS011;15241;48.374;10.876;2023-08-06T19:25:48;1.42;;;0.42;;
27895;SDS011;15241;48.374;10.876;2023-08-06T19:31:06;3.22;;;0.72;;
27895;SDS011;15241;48.374;10.876;2023-08-06T19:36:23;1.50;;;0.80;;
27895;SDS011;15241;48.374;10.876;2023-08-06T19:41:41;1.57;;;0.60;;
27895;SDS011;15241;48.374;10.876;2023-08-06T19:46:58;0.82;;;0.60;;
27895;SDS011;15241;48.374;10.876;2023-08-06T19:52:15;3.10;;;0.57;;
27895;SDS011;15241;48.374;10.876;2023-08-06T19:57:33;1.22;;;0.80;;
27895;SDS011;15241;48.374;10.876;2023-08-06T20:02:50;1.40;;;0.60;;
27895;SDS011;15241;48.374;10.876;2023-08-06T20:08:08;3.00;;;1.10;;
27895;SDS011;15241;48.374;10.876;2023-08-06T20:13:26;2.33;;;0.88;;
27895;SDS011;15241;48.374;10.876;2023-08-06T20:18:43;0.90;;;0.50;;
27895;SDS011;15241;48.374;10.876;2023-08-06T20:24:01;1.57;;;1.12;;
27895;SDS011;15241;48.374;10.876;2023-08-06T20:29:19;1.17;;;0.90;;
27895;SDS011;15241;48.374;10.876;2023-08-06T20:34:36;1.32;;;0.80;;
27895;SDS011;15241;48.374;10.876;2023-08-06T20:39:54;3.08;;;0.90;;
27895;SDS011;15241;48.374;10.876;2023-08-06T20:45:11;4.92;;;1.20;;
27895;SDS011;15241;48.374;10.876;2023-08-06T20:50:29;3.15;;;0.80;;
27895;SDS011;15241;48.374;10.876;2023-08-06T20:55:46;1.05;;;0.95;;
27895;SDS011;15241;48.374;10.876;2023-08-06T21:01:13;2.05;;;1.02;;
27895;SDS011;15241;48.374;10.876;2023-08-06T21:06:31;1.85;;;0.80;;
27895;SDS011;15241;48.374;10.876;2023-08-06T21:11:49;1.42;;;0.80;;
27895;SDS011;15241;48.374;10.876;2023-08-06T21:17:06;2.85;;;1.20;;
27895;SDS011;15241;48.374;10.876;2023-08-06T21:22:24;1.62;;;1.02;;
27895;SDS011;15241;48.374;10.876;2023-08-06T21:27:43;2.22;;;0.98;;
27895;SDS011;15241;48.374;10.876;2023-08-06T21:33:01;1.60;;;1.05;;
27895;SDS011;15241;48.374;10.876;2023-08-06T21:38:18;1.40;;;0.95;;
27895;SDS011;15241;48.374;10.876;2023-08-06T21:43:36;2.75;;;1.10;;
27895;SDS011;15241;48.374;10.876;2023-08-06T21:48:56;1.77;;;1.30;;
27895;SDS011;15241;48.374;10.876;2023-08-06T21:54:13;2.45;;;1.30;;
27895;SDS011;15241;48.374;10.876;2023-08-06T21:59:31;2.87;;;1.20;;
27895;SDS011;15241;48.374;10.876;2023-08-06T22:04:48;3.98;;;1.25;;
27895;SDS011;15241;48.374;10.876;2023-08-06T22:10:07;1.90;;;1.10;;
27895;SDS011;15241;48.374;10.876;2023-08-06T22:15:25;2.33;;;1.10;;
27895;SDS011;15241;48.374;10.876;2023-08-06T22:20:43;1.30;;;0.80;;
27895;SDS011;15241;48.374;10.876;2023-08-06T22:26:01;1.45;;;0.90;;
27895;SDS011;15241;48.374;10.876;2023-08-06T22:31:18;1.42;;;1.00;;
27895;SDS011;15241;48.374;10.876;2023-08-06T22:36:36;2.42;;;1.30;;
27895;SDS011;15241;48.374;10.876;2023-08-06T22:41:53;2.72;;;1.00;;
27895;SDS011;15241;48.374;10.876;2023-08-06T22:47:11;1.57;;;0.80;;
27895;SDS011;15241;48.374;10.876;2023-08-06T22:52:29;1.90;;;0.70;;
27895;SDS011;15241;48.374;10.876;2023-08-06T22:57:47;3.27;;;1.32;;
27895;SDS011;15241;48.374;10.876;2023-08-06T23:03:04;1.12;;;0.65;;
27895;SDS011;15241;48.374;10.876;2023-08-06T23:08:22;1.55;;;1.07;;
27895;SDS011;15241;48.374;10.876;2023-08-06T23:13:39;3.75;;;0.68;;
27895;SDS011;15241;48.374;10.876;2023-08-06T23:18:57;1.57;;;1.22;;
27895;SDS011;15241;48.374;10.876;2023-08-06T23:24:15;2.08;;;1.40;;
27895;SDS011;15241;48.374;10.876;2023-08-06T23:29:32;1.12;;;0.70;;
27895;SDS011;15241;48.374;10.876;2023-08-06T23:34:50;1.85;;;0.90;;
27895;SDS011;15241;48.374;10.876;2023-08-06T23:40:09;0.72;;;0.57;;
27895;SDS011;15241;48.374;10.876;2023-08-06T23:45:26;1.98;;;1.15;;
27895;SDS011;15241;48.374;10.876;2023-08-06T23:50:43;0.78;;;0.70;;
27895;SDS011;15241;48.374;10.876;2023-08-06T23:56:01;4.97;;;1.17;;
